Terminal Aerodrome Forecast
Issued by NWS Melbourne, FL

Home | Current Version | Previous Version | Text Only | Print | Product List | Glossary On
Versions: 1 2 3 4 5 6 7 8 9 10 11 12 13 14 15 16 17 18 19 20 21 22 23 24
000
FTUS42 KMLB 222059 AAA
TAFMCO
TAF AMD
KMCO 222059Z 2221/2318 31008KT P6SM FEW050
     FM230000 02009KT P6SM FEW020 SCT050
     FM230600 36006KT P6SM VCSH BKN020
     FM231500 06016G25KT P6SM VCSH BKN025=

USA.gov is the U.S. government's official web portal to all federal, state and local government web resources and services.